Time;durP1;ratioP1;P1;durP2;ratioP2;P2;SDS_P1;SDS_P2;PMS_P1;PMS_P2;Temp;Humidity;BMP_temperature;BMP_pressure;BME280_temperature;BME280_humidity;BME280_pressure;Samples;Min_cycle;Max_cycle;Signal;HPM_P1;HPM_P2
2022/03/09 00:02:07;;;;;;;9.88;4.70;;;5.70;99.90;;;;;;5043047;28;20048;-66
2022/03/09 00:04:33;;;;;;;10.55;4.45;;;5.70;99.90;;;;;;5041243;28;20041;-66
2022/03/09 00:06:58;;;;;;;6.32;5.03;;;5.60;99.90;;;;;;5047525;28;20664;-66
2022/03/09 00:09:24;;;;;;;9.60;4.78;;;5.60;99.90;;;;;;5035994;28;20366;-65
2022/03/09 00:11:50;;;;;;;6.03;4.50;;;5.60;99.90;;;;;;5029027;28;20041;-66
2022/03/09 00:14:15;;;;;;;8.70;4.88;;;5.50;99.90;;;;;;5037436;28;20562;-66
2022/03/09 00:16:41;;;;;;;8.27;4.78;;;5.50;99.90;;;;;;5048391;28;20449;-66
2022/03/09 00:19:06;;;;;;;8.82;5.05;;;5.50;99.90;;;;;;5042836;28;20060;-66
2022/03/09 00:21:32;;;;;;;12.85;4.65;;;5.50;99.90;;;;;;5037870;28;20063;-66
2022/03/09 00:23:57;;;;;;;5.70;4.78;;;5.50;99.90;;;;;;5047878;28;20400;-66
2022/03/09 00:26:23;;;;;;;7.47;5.50;;;5.40;99.90;;;;;;5045453;28;20770;-66
2022/03/09 00:28:49;;;;;;;7.47;5.10;;;5.50;99.90;;;;;;5036146;28;20037;-66
2022/03/09 00:31:14;;;;;;;7.55;4.88;;;5.40;99.90;;;;;;5039625;28;20122;-66
2022/03/09 00:33:40;;;;;;;9.10;5.15;;;5.30;99.90;;;;;;5046384;28;20494;-66
2022/03/09 00:36:05;;;;;;;10.55;5.88;;;5.30;99.90;;;;;;5038960;28;20067;-66
2022/03/09 00:38:31;;;;;;;8.18;4.75;;;5.30;99.90;;;;;;5043592;28;20049;-66
2022/03/09 00:40:57;;;;;;;8.32;6.13;;;5.30;99.90;;;;;;5035730;28;20518;-66
2022/03/09 00:43:22;;;;;;;8.27;5.80;;;5.20;99.90;;;;;;5026835;28;20053;-66
2022/03/09 00:45:48;;;;;;;8.38;5.15;;;5.20;99.90;;;;;;5034995;28;20069;-65
2022/03/09 00:48:14;;;;;;;7.88;5.32;;;5.20;99.90;;;;;;5047671;28;20440;-65
2022/03/09 00:50:40;;;;;;;8.40;6.25;;;5.30;99.90;;;;;;5040150;28;20038;-66
2022/03/09 00:53:05;;;;;;;9.55;5.68;;;5.20;99.90;;;;;;5039735;28;20512;-66
2022/03/09 00:55:31;;;;;;;8.02;5.30;;;5.20;99.90;;;;;;5046420;28;20043;-65
2022/03/09 00:57:56;;;;;;;12.40;6.28;;;5.20;99.90;;;;;;5046423;28;20405;-66
2022/03/09 01:00:22;;;;;;;10.00;6.43;;;5.30;99.90;;;;;;5029292;28;20099;-66
2022/03/09 01:02:48;;;;;;;17.05;6.65;;;5.10;99.90;;;;;;5045921;28;20048;-66
2022/03/09 01:05:14;;;;;;;7.28;5.43;;;5.20;99.90;;;;;;5042173;28;20045;-66
2022/03/09 01:07:40;;;;;;;8.90;5.53;;;5.20;99.90;;;;;;5028652;28;20375;-66
2022/03/09 01:10:07;;;;;;;7.47;5.13;;;5.10;99.90;;;;;;5041171;28;20072;-66
2022/03/09 01:12:33;;;;;;;8.43;6.10;;;5.20;99.90;;;;;;5038638;28;20124;-66
2022/03/09 01:14:58;;;;;;;9.75;6.20;;;5.20;99.90;;;;;;5038676;28;20612;-66
2022/03/09 01:17:26;;;;;;;16.92;7.28;;;5.10;99.90;;;;;;5047068;28;20135;-66
2022/03/09 01:19:52;;;;;;;10.68;6.03;;;5.00;99.90;;;;;;5045742;28;20057;-66
2022/03/09 01:22:17;;;;;;;17.92;6.40;;;4.90;99.90;;;;;;5047216;28;20052;-66
2022/03/09 01:24:43;;;;;;;16.08;6.20;;;4.80;99.90;;;;;;5040279;28;20037;-66
2022/03/09 01:27:08;;;;;;;15.68;6.72;;;4.90;99.90;;;;;;5039880;28;20072;-66
2022/03/09 01:29:34;;;;;;;10.70;6.63;;;4.80;99.90;;;;;;5034213;28;20045;-66
2022/03/09 01:32:00;;;;;;;7.93;5.47;;;4.90;99.90;;;;;;5046701;28;20088;-66
2022/03/09 01:34:26;;;;;;;15.85;6.90;;;4.80;99.90;;;;;;5046476;28;20084;-66
2022/03/09 01:36:51;;;;;;;8.80;6.35;;;4.80;99.90;;;;;;5033471;28;20051;-66
2022/03/09 01:39:17;;;;;;;9.43;6.53;;;4.90;99.90;;;;;;5038959;28;20116;-65
2022/03/09 01:41:42;;;;;;;11.98;6.68;;;5.00;99.90;;;;;;5030337;28;20065;-66
2022/03/09 01:44:14;;;;;;;10.80;6.15;;;4.80;99.90;;;;;;5030403;28;20056;-66
2022/03/09 01:46:41;;;;;;;9.15;6.25;;;4.80;99.90;;;;;;5032089;28;20091;-66
2022/03/09 01:49:09;;;;;;;10.65;7.68;;;4.80;99.90;;;;;;5042951;28;20073;-66
2022/03/09 01:51:38;;;;;;;11.15;5.75;;;4.80;99.90;;;;;;5040581;28;20064;-66
2022/03/09 01:54:04;;;;;;;10.35;6.47;;;4.70;99.90;;;;;;5035855;28;20632;-66
2022/03/09 01:56:30;;;;;;;12.73;7.45;;;4.70;99.90;;;;;;5039104;28;20048;-66
2022/03/09 01:58:56;;;;;;;12.70;7.20;;;4.70;99.90;;;;;;5047239;28;20071;-66
2022/03/09 02:01:22;;;;;;;10.20;6.70;;;4.80;99.90;;;;;;5034770;28;20498;-65
2022/03/09 02:03:49;;;;;;;8.82;6.28;;;4.80;99.90;;;;;;5040223;28;20136;-65
2022/03/09 02:06:14;;;;;;;15.25;7.88;;;4.80;99.90;;;;;;5031303;28;20049;-66
2022/03/09 02:11:26;;;;;;;14.20;7.97;;;4.80;99.90;;;;;;5050062;28;20634;-66
2022/03/09 02:13:51;;;;;;;11.65;7.50;;;4.70;99.90;;;;;;5039603;28;20045;-65
2022/03/09 02:16:17;;;;;;;11.18;7.15;;;4.60;99.90;;;;;;5035585;28;20049;-66
2022/03/09 02:18:42;;;;;;;10.10;7.10;;;4.50;99.90;;;;;;5039492;28;20029;-65
2022/03/09 02:21:11;;;;;;;10.60;8.23;;;4.50;99.90;;;;;;5042586;28;20053;-66
2022/03/09 02:23:36;;;;;;;11.93;8.02;;;4.40;99.90;;;;;;5045262;28;20037;-65
2022/03/09 02:26:02;;;;;;;11.60;8.20;;;4.30;99.90;;;;;;5035887;28;20049;-66
2022/03/09 02:28:28;;;;;;;14.60;8.00;;;4.30;99.90;;;;;;5044913;28;20029;-66
2022/03/09 02:30:57;;;;;;;12.57;7.50;;;4.30;99.90;;;;;;5030940;28;20049;-66
2022/03/09 02:33:23;;;;;;;12.00;8.45;;;4.30;99.90;;;;;;5048180;28;20043;-66
2022/03/09 02:35:51;;;;;;;13.15;8.52;;;4.30;99.90;;;;;;5040496;28;20037;-66
2022/03/09 02:38:17;;;;;;;11.82;7.45;;;4.20;99.90;;;;;;5035535;28;20110;-66
2022/03/09 02:40:42;;;;;;;13.60;7.53;;;4.20;99.90;;;;;;5044512;28;20492;-66
2022/03/09 02:43:08;;;;;;;14.20;7.97;;;4.10;99.90;;;;;;5039468;28;20079;-66
2022/03/09 02:45:34;;;;;;;14.48;8.63;;;4.00;99.90;;;;;;5045705;28;20056;-66
2022/03/09 02:47:59;;;;;;;11.68;7.85;;;4.00;99.90;;;;;;5029946;28;20045;-66
2022/03/09 02:50:25;;;;;;;13.07;8.50;;;4.00;99.90;;;;;;5034880;28;20049;-66
2022/03/09 02:52:51;;;;;;;13.60;8.15;;;3.90;99.90;;;;;;5050084;28;20064;-66
2022/03/09 02:55:16;;;;;;;12.10;8.75;;;3.90;99.90;;;;;;5047993;28;20084;-66
2022/03/09 02:57:43;;;;;;;13.63;8.50;;;3.80;99.90;;;;;;5044100;28;20124;-67
2022/03/09 03:00:11;;;;;;;14.40;8.63;;;3.90;99.90;;;;;;5045539;28;20041;-65
2022/03/09 03:02:37;;;;;;;16.52;9.20;;;3.80;99.90;;;;;;5030595;28;20060;-65
2022/03/09 03:05:04;;;;;;;15.50;8.30;;;3.70;99.90;;;;;;5033061;28;20156;-65
2022/03/09 03:07:29;;;;;;;12.40;8.10;;;3.70;99.90;;;;;;5030171;28;20045;-67
2022/03/09 03:09:56;;;;;;;14.75;8.75;;;3.70;99.90;;;;;;5037581;28;20128;-66
2022/03/09 03:12:21;;;;;;;11.77;7.78;;;3.70;99.90;;;;;;5042368;28;20136;-66
2022/03/09 03:14:47;;;;;;;13.60;8.68;;;3.80;99.90;;;;;;5029283;28;20060;-66
2022/03/09 03:17:13;;;;;;;11.57;7.82;;;3.70;99.90;;;;;;5028896;28;20061;-66
2022/03/09 03:19:38;;;;;;;13.10;8.73;;;3.70;99.90;;;;;;5029330;28;20076;-66
2022/03/09 03:22:04;;;;;;;10.93;7.97;;;3.80;99.90;;;;;;5029074;28;20057;-66
2022/03/09 03:24:29;;;;;;;16.67;9.18;;;3.70;99.90;;;;;;5035256;28;20051;-67
2022/03/09 03:26:55;;;;;;;13.27;8.27;;;3.70;99.90;;;;;;5048049;28;20154;-66
2022/03/09 03:29:21;;;;;;;12.48;8.00;;;3.70;99.90;;;;;;5047641;28;20127;-66
2022/03/09 03:31:46;;;;;;;14.13;9.00;;;3.80;99.90;;;;;;5048258;28;20045;-66
2022/03/09 03:34:12;;;;;;;13.35;8.50;;;3.70;99.90;;;;;;5032430;28;20049;-66
2022/03/09 03:36:37;;;;;;;11.80;8.00;;;3.60;99.90;;;;;;5037584;28;20485;-66
2022/03/09 03:39:03;;;;;;;12.63;8.63;;;3.70;99.90;;;;;;5048606;28;20040;-65
2022/03/09 03:41:29;;;;;;;11.68;8.20;;;3.60;99.90;;;;;;5047393;28;20045;-65
2022/03/09 03:43:55;;;;;;;12.30;7.80;;;3.70;99.90;;;;;;5031475;28;20044;-66
2022/03/09 03:46:20;;;;;;;14.50;7.63;;;3.70;99.90;;;;;;5028529;28;20128;-66
2022/03/09 03:48:46;;;;;;;15.98;8.25;;;3.60;99.90;;;;;;5029860;28;20082;-65
2022/03/09 03:51:11;;;;;;;14.73;8.02;;;3.60;99.90;;;;;;5031314;28;20102;-65
2022/03/09 03:53:37;;;;;;;15.15;8.88;;;3.70;99.90;;;;;;5029067;28;20409;-66
2022/03/09 03:56:03;;;;;;;13.68;9.43;;;3.70;99.90;;;;;;5046794;28;20045;-65
2022/03/09 03:58:29;;;;;;;13.80;8.65;;;3.60;99.90;;;;;;5048233;28;20517;-66
2022/03/09 04:00:54;;;;;;;12.82;8.38;;;3.60;99.90;;;;;;5041949;28;20049;-66
2022/03/09 04:03:20;;;;;;;14.80;9.60;;;3.60;99.90;;;;;;5031695;28;20044;-65
2022/03/09 04:05:45;;;;;;;12.95;8.35;;;3.60;99.90;;;;;;5043259;28;20045;-66
2022/03/09 04:08:11;;;;;;;15.80;9.13;;;3.60;99.90;;;;;;5027985;28;20049;-66
2022/03/09 04:10:36;;;;;;;14.02;8.88;;;3.50;99.90;;;;;;5045893;28;20045;-66
2022/03/09 04:13:04;;;;;;;15.68;8.93;;;3.50;99.90;;;;;;5049597;28;20116;-66
2022/03/09 04:15:32;;;;;;;14.60;9.02;;;3.50;99.90;;;;;;5030413;28;20469;-67
2022/03/09 04:17:58;;;;;;;13.63;9.07;;;3.50;99.90;;;;;;5029724;28;20128;-65
2022/03/09 04:20:24;;;;;;;16.95;8.25;;;3.50;99.90;;;;;;5027785;28;20139;-66
2022/03/09 04:22:50;;;;;;;14.38;9.35;;;3.50;99.90;;;;;;5044885;28;20055;-66
2022/03/09 04:25:16;;;;;;;13.68;8.75;;;3.50;99.90;;;;;;5048293;28;20043;-65
2022/03/09 04:27:41;;;;;;;12.52;8.68;;;3.50;99.90;;;;;;5037997;28;20095;-65
2022/03/09 04:30:08;;;;;;;14.05;8.75;;;3.50;99.90;;;;;;5027773;28;20041;-66
2022/03/09 04:32:34;;;;;;;13.18;9.30;;;3.60;99.90;;;;;;5047766;28;20073;-65
2022/03/09 04:35:01;;;;;;;12.05;8.73;;;3.50;99.90;;;;;;5047563;28;20432;-66
2022/03/09 04:37:30;;;;;;;13.85;10.18;;;3.50;99.90;;;;;;5032109;28;20045;-66
2022/03/09 04:39:57;;;;;;;11.68;7.82;;;3.50;99.90;;;;;;5039649;28;20127;-66
2022/03/09 04:42:23;;;;;;;11.85;8.65;;;3.50;99.90;;;;;;5047099;28;20090;-65
2022/03/09 04:44:48;;;;;;;13.73;9.00;;;3.40;99.90;;;;;;5033223;28;20063;-66
2022/03/09 04:47:14;;;;;;;11.57;8.05;;;3.40;99.90;;;;;;5026682;28;20052;-65
2022/03/09 04:49:39;;;;;;;12.18;8.70;;;3.30;99.90;;;;;;5035006;28;20037;-65
2022/03/09 04:52:05;;;;;;;15.25;9.98;;;3.30;99.90;;;;;;5036281;28;20064;-65
2022/03/09 04:54:31;;;;;;;12.02;8.30;;;3.40;99.90;;;;;;5028599;28;20042;-65
2022/03/09 04:56:56;;;;;;;12.32;8.85;;;3.40;99.90;;;;;;5028703;28;20042;-65
2022/03/09 04:59:22;;;;;;;14.43;7.72;;;3.30;99.90;;;;;;5033356;28;20037;-66
2022/03/09 05:01:47;;;;;;;13.90;8.55;;;3.30;99.90;;;;;;5028593;28;20046;-65
2022/03/09 05:04:13;;;;;;;18.67;9.52;;;3.30;99.90;;;;;;5036515;28;20073;-66
2022/03/09 05:06:38;;;;;;;13.93;8.95;;;3.30;99.90;;;;;;5031734;28;20118;-65
2022/03/09 05:09:04;;;;;;;18.27;9.38;;;3.20;99.90;;;;;;5040884;28;20546;-65
2022/03/09 05:11:29;;;;;;;12.98;8.60;;;3.20;99.90;;;;;;5027231;28;20107;-66
2022/03/09 05:13:55;;;;;;;19.23;10.35;;;3.10;99.90;;;;;;5034708;28;20041;-65
2022/03/09 05:16:22;;;;;;;14.18;9.07;;;3.10;99.90;;;;;;5031293;28;20045;-65
2022/03/09 05:18:48;;;;;;;12.40;8.55;;;3.20;99.90;;;;;;5026857;28;20046;-65
2022/03/09 05:21:13;;;;;;;12.95;9.07;;;3.10;99.90;;;;;;5027469;28;20045;-66
2022/03/09 05:23:39;;;;;;;11.38;8.23;;;3.10;99.90;;;;;;5027725;28;20069;-65
2022/03/09 05:26:04;;;;;;;13.38;8.38;;;3.10;99.90;;;;;;5026215;28;20132;-65
2022/03/09 05:28:30;;;;;;;13.25;9.10;;;3.10;99.90;;;;;;5029583;28;20136;-66
2022/03/09 05:30:55;;;;;;;13.98;8.95;;;3.00;99.90;;;;;;5032877;28;20180;-65
2022/03/09 05:33:21;;;;;;;20.92;10.60;;;3.10;99.90;;;;;;5030862;28;20057;-65
2022/03/09 05:35:46;;;;;;;13.65;9.00;;;3.10;99.90;;;;;;5048889;28;20053;-65
2022/03/09 05:38:12;;;;;;;15.43;10.13;;;3.00;99.90;;;;;;5035196;28;20045;-66
2022/03/09 05:40:37;;;;;;;14.18;8.75;;;3.00;99.90;;;;;;5039691;28;20037;-65
2022/03/09 05:43:03;;;;;;;11.27;7.88;;;3.00;99.90;;;;;;5033671;28;20486;-65
2022/03/09 05:45:28;;;;;;;17.95;9.38;;;3.10;99.90;;;;;;5030011;28;20529;-65
2022/03/09 05:47:54;;;;;;;13.55;9.23;;;3.00;99.90;;;;;;5031937;28;20053;-66
2022/03/09 05:50:20;;;;;;;16.13;8.80;;;3.00;99.90;;;;;;5033449;28;20055;-65
2022/03/09 05:52:46;;;;;;;15.90;9.35;;;3.00;99.90;;;;;;5029339;28;20067;-65
2022/03/09 05:55:12;;;;;;;12.98;9.02;;;3.00;99.90;;;;;;5031185;28;20045;-65
2022/03/09 05:57:37;;;;;;;12.15;8.23;;;3.00;99.90;;;;;;5030513;28;20049;-66
2022/03/09 06:00:06;;;;;;;14.60;9.52;;;3.00;99.90;;;;;;5031173;28;20084;-65
2022/03/09 06:02:32;;;;;;;15.38;8.50;;;2.90;99.90;;;;;;5033426;28;20084;-65
2022/03/09 06:04:57;;;;;;;15.18;9.32;;;2.90;99.90;;;;;;5036085;28;20077;-65
2022/03/09 06:07:23;;;;;;;13.68;9.00;;;2.80;99.90;;;;;;5028436;28;20454;-65
2022/03/09 06:09:49;;;;;;;12.65;8.52;;;2.90;99.90;;;;;;5039931;28;20033;-65
2022/03/09 06:12:15;;;;;;;14.10;10.00;;;2.80;99.90;;;;;;5043192;28;20041;-65
2022/03/09 06:14:41;;;;;;;14.88;9.80;;;2.80;99.90;;;;;;5030417;28;20060;-65
2022/03/09 06:17:06;;;;;;;17.90;10.13;;;2.90;99.90;;;;;;5033648;28;20037;-66
2022/03/09 06:19:32;;;;;;;14.55;10.38;;;2.90;99.90;;;;;;5039409;28;20381;-65
2022/03/09 06:21:57;;;;;;;12.85;8.77;;;2.80;99.90;;;;;;5045564;28;20049;-65
2022/03/09 06:24:23;;;;;;;16.95;9.30;;;2.90;99.90;;;;;;5049416;28;20085;-65
2022/03/09 06:26:49;;;;;;;13.75;9.27;;;2.90;99.90;;;;;;5051010;28;20041;-65
2022/03/09 06:29:14;;;;;;;13.60;9.05;;;2.80;99.90;;;;;;5044601;28;20045;-65
2022/03/09 06:31:42;;;;;;;19.05;10.75;;;2.90;99.90;;;;;;5030714;28;20053;-65
2022/03/09 06:34:08;;;;;;;14.68;10.60;;;2.80;99.90;;;;;;5033174;28;20408;-65
2022/03/09 06:36:34;;;;;;;23.25;9.23;;;2.80;99.90;;;;;;5039231;28;20045;-65
2022/03/09 06:38:59;;;;;;;13.93;9.35;;;2.80;99.90;;;;;;5030423;28;20045;-65
2022/03/09 06:41:25;;;;;;;15.55;10.00;;;2.90;99.90;;;;;;5049317;28;20348;-65
2022/03/09 06:43:51;;;;;;;13.85;9.77;;;2.90;99.90;;;;;;5042499;28;20049;-65
2022/03/09 06:46:16;;;;;;;19.85;9.38;;;2.90;99.90;;;;;;5040054;28;20397;-64
2022/03/09 06:48:42;;;;;;;18.30;10.38;;;2.90;99.90;;;;;;5045889;28;20479;-65
2022/03/09 06:51:08;;;;;;;13.35;8.20;;;3.00;99.90;;;;;;5040011;28;20045;-65
2022/03/09 06:53:34;;;;;;;20.77;9.75;;;3.00;99.90;;;;;;5043821;28;20045;-65
2022/03/09 06:55:59;;;;;;;12.85;9.52;;;3.00;99.90;;;;;;5031099;28;20045;-65
2022/03/09 06:58:26;;;;;;;12.95;8.75;;;3.10;99.90;;;;;;5029032;28;20614;-65
2022/03/09 07:00:51;;;;;;;12.20;9.32;;;3.10;99.90;;;;;;5036606;28;20070;-65
2022/03/09 07:03:17;;;;;;;19.25;9.77;;;3.10;99.90;;;;;;5048657;28;20045;-65
2022/03/09 07:05:43;;;;;;;14.00;10.00;;;3.20;99.90;;;;;;5043046;28;20037;-65
2022/03/09 07:08:08;;;;;;;15.07;9.27;;;3.20;99.90;;;;;;5035759;28;20037;-65
2022/03/09 07:10:34;;;;;;;13.77;9.90;;;3.20;99.90;;;;;;5049060;28;20057;-65
2022/03/09 07:13:00;;;;;;;17.13;9.38;;;3.30;99.90;;;;;;5041397;28;20125;-65
2022/03/09 07:15:25;;;;;;;14.07;9.57;;;3.30;99.90;;;;;;5033858;28;20129;-65
2022/03/09 07:17:51;;;;;;;12.82;8.48;;;3.40;99.90;;;;;;5049096;28;20045;-65
2022/03/09 07:20:18;;;;;;;14.55;9.13;;;3.50;99.90;;;;;;5048969;28;20667;-65
2022/03/09 07:22:44;;;;;;;13.75;9.35;;;3.50;99.90;;;;;;5037922;28;20045;-65
2022/03/09 07:25:11;;;;;;;14.43;10.00;;;3.50;99.90;;;;;;5034675;28;20172;-65
2022/03/09 07:27:37;;;;;;;13.45;10.23;;;3.50;99.90;;;;;;5036198;28;20051;-65
2022/03/09 07:30:04;;;;;;;19.65;9.98;;;3.50;99.90;;;;;;5038537;28;20072;-65
2022/03/09 07:32:29;;;;;;;17.27;9.52;;;3.60;99.90;;;;;;5028862;28;20053;-66
2022/03/09 07:34:55;;;;;;;14.23;8.93;;;3.70;99.90;;;;;;5040697;28;20048;-65
2022/03/09 07:37:21;;;;;;;14.15;9.05;;;3.80;99.90;;;;;;5045291;28;20060;-65
2022/03/09 07:39:46;;;;;;;19.05;9.70;;;3.90;99.90;;;;;;5034586;28;20053;-66
2022/03/09 07:42:12;;;;;;;18.88;9.65;;;3.90;99.90;;;;;;5039392;28;20055;-66
2022/03/09 07:44:37;;;;;;;15.93;9.20;;;4.00;99.90;;;;;;5048062;28;20066;-65
2022/03/09 07:47:03;;;;;;;12.80;9.23;;;4.00;99.90;;;;;;5047588;28;20041;-65
2022/03/09 07:49:33;;;;;;;13.05;9.10;;;4.10;99.90;;;;;;5048394;28;20467;-65
2022/03/09 07:52:02;;;;;;;15.90;9.60;;;4.10;99.90;;;;;;5032325;28;20057;-65
2022/03/09 07:54:28;;;;;;;13.45;9.15;;;4.20;99.90;;;;;;5028023;28;20516;-65
2022/03/09 07:56:54;;;;;;;18.50;9.48;;;4.20;99.90;;;;;;5028254;28;20080;-65
2022/03/09 07:59:20;;;;;;;13.80;9.68;;;4.30;99.90;;;;;;5028338;28;20049;-65
2022/03/09 08:01:46;;;;;;;14.27;9.15;;;4.30;99.90;;;;;;5026643;28;20042;-65
2022/03/09 08:04:11;;;;;;;12.63;8.43;;;4.40;99.90;;;;;;5030141;28;20045;-66
2022/03/09 08:06:37;;;;;;;14.57;9.82;;;4.50;99.90;;;;;;5036886;28;20095;-66
2022/03/09 08:09:04;;;;;;;13.77;8.82;;;4.50;99.90;;;;;;5038724;28;20447;-65
2022/03/09 08:11:30;;;;;;;14.25;8.48;;;4.60;99.90;;;;;;5028044;28;20049;-65
2022/03/09 08:13:56;;;;;;;15.35;9.65;;;4.60;99.90;;;;;;5026679;28;20049;-66
2022/03/09 08:16:22;;;;;;;13.70;8.70;;;4.70;99.90;;;;;;5028214;28;20676;-65
2022/03/09 08:18:47;;;;;;;12.90;8.52;;;4.60;99.90;;;;;;5041311;28;20048;-66
2022/03/09 08:21:13;;;;;;;13.40;8.80;;;4.70;99.90;;;;;;5047816;28;20071;-66
2022/03/09 08:23:38;;;;;;;13.10;8.48;;;4.80;99.90;;;;;;5033291;28;20049;-66
2022/03/09 08:26:04;;;;;;;13.70;8.25;;;4.90;99.90;;;;;;5028557;28;20102;-66
2022/03/09 08:28:29;;;;;;;13.48;9.27;;;4.90;99.90;;;;;;5027238;28;20060;-66
2022/03/09 08:30:55;;;;;;;19.02;8.27;;;5.00;99.90;;;;;;5028773;28;20700;-66
2022/03/09 08:33:21;;;;;;;13.20;8.00;;;5.00;99.90;;;;;;5039044;28;20073;-66
2022/03/09 08:35:46;;;;;;;16.95;8.88;;;5.10;99.90;;;;;;5045218;28;20057;-66
2022/03/09 08:38:12;;;;;;;10.25;7.70;;;5.10;99.90;;;;;;5038351;28;20040;-65
2022/03/09 08:40:37;;;;;;;13.98;8.73;;;5.20;99.90;;;;;;5039481;28;20576;-66
2022/03/09 08:43:03;;;;;;;15.48;9.15;;;5.30;99.90;;;;;;5028301;28;20049;-66
2022/03/09 08:45:29;;;;;;;12.52;8.52;;;5.40;99.90;;;;;;5037978;28;20044;-66
2022/03/09 08:47:54;;;;;;;14.85;8.77;;;5.50;99.90;;;;;;5045601;28;20520;-66
2022/03/09 08:50:20;;;;;;;14.80;9.10;;;5.50;99.90;;;;;;5029122;28;20128;-66
2022/03/09 08:52:45;;;;;;;12.40;9.27;;;5.60;99.90;;;;;;5034106;28;20053;-63
2022/03/09 08:55:11;;;;;;;14.13;9.48;;;5.70;99.90;;;;;;5033481;28;20091;-63
2022/03/09 08:57:36;;;;;;;15.38;8.52;;;5.70;99.90;;;;;;5033401;28;20694;-66
2022/03/09 09:00:04;;;;;;;15.52;9.07;;;5.70;99.90;;;;;;5028815;28;20382;-66
2022/03/09 09:02:30;;;;;;;13.43;9.02;;;5.70;99.90;;;;;;5027386;28;20041;-65
2022/03/09 09:04:57;;;;;;;16.27;9.02;;;5.90;99.90;;;;;;5047387;28;20045;-66
2022/03/09 09:07:23;;;;;;;13.85;9.23;;;5.90;99.90;;;;;;5031743;28;20076;-66
2022/03/09 09:09:48;;;;;;;13.25;8.32;;;5.90;99.90;;;;;;5039746;28;20044;-66
2022/03/09 09:12:14;;;;;;;14.95;8.05;;;6.00;99.90;;;;;;5031626;28;20045;-66
2022/03/09 09:14:40;;;;;;;11.98;7.95;;;6.00;99.90;;;;;;5032345;28;20046;-66
2022/03/09 09:17:05;;;;;;;11.95;8.00;;;6.10;99.90;;;;;;5031107;28;20084;-66
2022/03/09 09:19:31;;;;;;;14.82;9.20;;;6.20;99.90;;;;;;5041837;28;20048;-66
2022/03/09 09:21:57;;;;;;;14.88;8.95;;;6.20;99.90;;;;;;5052251;28;20109;-66
2022/03/09 09:24:23;;;;;;;14.45;8.75;;;6.30;99.90;;;;;;5043779;28;20492;-66
2022/03/09 09:26:48;;;;;;;14.48;8.75;;;6.30;99.90;;;;;;5032235;28;20129;-66
2022/03/09 09:29:15;;;;;;;13.35;7.65;;;6.40;99.90;;;;;;5030144;28;20476;-66
2022/03/09 09:31:40;;;;;;;15.95;10.18;;;6.50;99.90;;;;;;5037591;28;20083;-65
2022/03/09 09:34:07;;;;;;;12.02;8.65;;;7.20;99.90;;;;;;5044790;28;20096;-66
2022/03/09 09:36:34;;;;;;;11.43;8.52;;;8.10;99.90;;;;;;5046402;28;20041;-67
2022/03/09 09:39:00;;;;;;;17.33;8.80;;;8.90;97.90;;;;;;5050599;28;20041;-66
2022/03/09 09:41:26;;;;;;;13.15;8.15;;;9.70;95.90;;;;;;5040628;28;20535;-66
2022/03/09 09:43:52;;;;;;;10.73;7.63;;;10.50;93.40;;;;;;5041681;28;20045;-66
2022/03/09 09:46:18;;;;;;;18.52;9.23;;;11.30;92.60;;;;;;5049497;28;20135;-66
2022/03/09 09:48:44;;;;;;;13.88;9.07;;;11.60;90.20;;;;;;5039458;28;20038;-66
2022/03/09 09:51:12;;;;;;;16.40;8.57;;;11.90;89.30;;;;;;5046742;28;20068;-66
2022/03/09 09:53:42;;;;;;;10.45;7.85;;;11.80;86.30;;;;;;5041120;28;20037;-66
2022/03/09 09:56:09;;;;;;;10.18;7.65;;;12.30;85.60;;;;;;5036776;28;20049;-66
2022/03/09 09:58:36;;;;;;;12.15;8.77;;;12.70;81.90;;;;;;5031624;28;20497;-66
2022/03/09 10:01:02;;;;;;;14.98;8.73;;;12.50;82.80;;;;;;5050518;28;20484;-66
2022/03/09 10:03:27;;;;;;;12.07;8.13;;;12.50;81.60;;;;;;5045332;28;20041;-66
2022/03/09 10:05:53;;;;;;;14.98;8.10;;;12.70;80.20;;;;;;5029289;28;20099;-66
2022/03/09 10:08:19;;;;;;;11.68;7.50;;;13.00;79.70;;;;;;5030680;28;20045;-66
2022/03/09 10:11:03;;;;;;;10.30;8.00;;;12.70;80.30;;;;;;5031217;28;20056;-66
2022/03/09 10:13:30;;;;;;;14.55;8.10;;;12.70;77.30;;;;;;5032640;28;20042;-66
2022/03/09 10:16:18;;;;;;;15.82;7.90;;;12.40;78.20;;;;;;5032697;28;20085;-66
2022/03/09 10:18:54;;;;;;;12.50;8.40;;;12.30;78.10;;;;;;5033484;28;20054;-66
2022/03/09 10:21:26;;;;;;;10.82;7.82;;;12.10;78.40;;;;;;5041023;28;20046;-66
2022/03/09 10:24:01;;;;;;;19.77;8.13;;;12.20;79.20;;;;;;5035621;28;20045;-66
2022/03/09 10:26:47;;;;;;;9.90;7.70;;;12.20;79.70;;;;;;5029401;28;20053;-66
2022/03/09 10:29:18;;;;;;;15.20;8.60;;;12.10;81.10;;;;;;5035802;28;20071;-66
2022/03/09 10:31:44;;;;;;;11.13;7.40;;;12.10;82.90;;;;;;5044384;28;20069;-66
2022/03/09 10:34:12;;;;;;;15.68;9.00;;;12.10;81.70;;;;;;5030944;28;20104;-66
2022/03/09 10:37:12;;;;;;;15.45;8.82;;;12.30;81.10;;;;;;5033423;28;20129;-66
2022/03/09 10:39:38;;;;;;;13.23;7.93;;;12.30;78.80;;;;;;5030253;28;20088;-65
2022/03/09 10:42:20;;;;;;;20.10;7.47;;;12.10;78.80;;;;;;5029945;28;20073;-66
2022/03/09 10:44:48;;;;;;;11.45;7.97;;;11.90;80.00;;;;;;5030830;28;20084;-66
2022/03/09 10:47:35;;;;;;;13.23;8.35;;;12.10;82.20;;;;;;5030339;28;20056;-66
2022/03/09 10:50:22;;;;;;;13.55;9.02;;;12.20;76.80;;;;;;5031071;28;20042;-66
2022/03/09 10:52:49;;;;;;;13.30;8.35;;;12.20;77.10;;;;;;5045320;28;20468;-66
2022/03/09 10:55:31;;;;;;;11.65;9.05;;;12.20;78.80;;;;;;5029006;28;20057;-66
2022/03/09 10:58:08;;;;;;;10.18;8.57;;;12.30;79.00;;;;;;5035195;28;20088;-66
2022/03/09 11:00:43;;;;;;;10.98;7.78;;;12.30;78.20;;;;;;5029849;28;20246;-66
2022/03/09 11:03:11;;;;;;;13.77;7.53;;;12.70;79.60;;;;;;5043164;28;20448;-66
2022/03/09 11:05:51;;;;;;;12.05;8.07;;;12.70;77.70;;;;;;5030137;28;20124;-66
2022/03/09 11:08:18;;;;;;;16.63;8.77;;;12.90;76.40;;;;;;5029186;28;20060;-66
2022/03/09 11:10:45;;;;;;;12.98;8.63;;;13.10;75.50;;;;;;5037947;28;20056;-66
2022/03/09 11:13:12;;;;;;;11.60;8.02;;;13.10;74.20;;;;;;5049505;28;20512;-66
2022/03/09 11:15:39;;;;;;;14.13;8.95;;;13.20;75.90;;;;;;5049809;28;20053;-66
2022/03/09 11:18:06;;;;;;;15.43;8.35;;;13.30;74.30;;;;;;5027444;28;20053;-66
2022/03/09 11:20:32;;;;;;;14.07;8.77;;;13.50;76.80;;;;;;5029987;28;20045;-66
2022/03/09 11:22:57;;;;;;;14.30;8.75;;;13.60;73.00;;;;;;5029109;28;20048;-67
2022/03/09 11:25:23;;;;;;;21.77;8.82;;;13.70;74.90;;;;;;5030449;28;20053;-67
2022/03/09 11:27:53;;;;;;;14.73;7.75;;;13.80;73.70;;;;;;5039710;28;20041;-67
2022/03/09 11:30:24;;;;;;;17.83;9.80;;;14.00;74.10;;;;;;5028483;28;20045;-66
2022/03/09 11:32:50;;;;;;;11.63;8.63;;;14.10;73.00;;;;;;5032393;28;20049;-67
2022/03/09 11:35:36;;;;;;;10.18;8.38;;;14.20;71.80;;;;;;5038196;28;20103;-67
2022/03/09 11:38:24;;;;;;;10.15;7.60;;;14.40;72.40;;;;;;5032706;28;20053;-67
2022/03/09 11:41:15;;;;;;;13.32;9.40;;;14.40;73.40;;;;;;5035048;28;20511;-67
2022/03/09 11:43:41;;;;;;;10.20;8.15;;;14.60;72.30;;;;;;5029483;28;20072;-67
2022/03/09 11:46:07;;;;;;;12.50;8.20;;;14.70;71.70;;;;;;5027853;28;20033;-67
2022/03/09 11:48:49;;;;;;;16.10;9.60;;;14.90;71.60;;;;;;5029507;28;20053;-66
2022/03/09 11:51:15;;;;;;;12.30;8.48;;;15.00;68.10;;;;;;5037258;28;20053;-67
2022/03/09 11:53:46;;;;;;;12.82;8.40;;;15.10;70.80;;;;;;5049591;28;20102;-67
2022/03/09 11:56:32;;;;;;;15.60;9.30;;;15.50;67.90;;;;;;5033154;28;20060;-66
2022/03/09 11:59:18;;;;;;;20.45;9.90;;;15.40;66.50;;;;;;5027318;28;20064;-67
2022/03/09 12:01:59;;;;;;;18.08;9.32;;;15.70;67.30;;;;;;5031818;28;20531;-67
2022/03/09 12:04:45;;;;;;;12.02;8.63;;;15.90;68.70;;;;;;5039391;28;20467;-67
2022/03/09 12:07:12;;;;;;;12.55;9.13;;;15.80;66.90;;;;;;5027475;28;20083;-67
2022/03/09 12:10:05;;;;;;;13.25;8.38;;;15.80;66.90;;;;;;5028715;28;20056;-67
2022/03/09 12:12:32;;;;;;;14.60;8.23;;;16.00;66.60;;;;;;5029490;28;20045;-67
2022/03/09 12:15:05;;;;;;;9.98;8.20;;;16.10;68.30;;;;;;5044133;28;20382;-67
2022/03/09 12:17:34;;;;;;;14.73;9.73;;;16.30;67.80;;;;;;5048755;28;20053;-66
2022/03/09 12:20:19;;;;;;;13.35;10.05;;;16.40;67.60;;;;;;5035808;28;20041;-66
2022/03/09 12:22:56;;;;;;;12.98;9.02;;;16.70;67.50;;;;;;5028852;28;20323;-66
2022/03/09 12:25:43;;;;;;;15.38;10.20;;;16.70;65.80;;;;;;5027761;28;20041;-66
2022/03/09 12:28:29;;;;;;;14.80;9.20;;;16.90;66.40;;;;;;5027779;28;20041;-67
2022/03/09 12:31:15;;;;;;;16.75;10.45;;;17.00;67.40;;;;;;5028233;28;20107;-66
2022/03/09 12:33:42;;;;;;;13.48;9.25;;;17.20;64.90;;;;;;5039888;28;20037;-66
2022/03/09 12:36:20;;;;;;;13.30;10.30;;;17.10;65.70;;;;;;5027729;28;20060;-67
2022/03/09 12:38:57;;;;;;;17.30;9.48;;;17.40;65.30;;;;;;5027773;28;20407;-66
2022/03/09 12:41:37;;;;;;;13.68;9.02;;;17.50;64.60;;;;;;5027091;28;20049;-67
2022/03/09 12:44:07;;;;;;;16.80;10.07;;;17.60;64.60;;;;;;5028087;28;20045;-66
2022/03/09 12:46:37;;;;;;;12.23;9.23;;;18.00;66.90;;;;;;5027577;28;20041;-67
2022/03/09 12:49:10;;;;;;;14.35;9.20;;;17.70;64.20;;;;;;5029294;28;20041;-66
2022/03/09 12:51:38;;;;;;;12.20;9.88;;;17.70;63.30;;;;;;5042216;28;20727;-67